sensor_id;sensor_type;location;lat;lon;timestamp;pressure;altitude;pressure_sealevel;temperature;humidity
79372;BME280;68914;51.262;6.802;2023-04-08T00:00:25;101906.25;;;10.25;80.46
79372;BME280;68914;51.262;6.802;2023-04-08T00:01:25;101904.28;;;10.19;80.55
79372;BME280;68914;51.262;6.802;2023-04-08T00:02:26;101905.09;;;10.20;81.09
79372;BME280;68914;51.262;6.802;2023-04-08T00:03:27;101907.75;;;10.28;81.01
79372;BME280;68914;51.262;6.802;2023-04-08T00:04:27;101909.06;;;10.24;81.28
79372;BME280;68914;51.262;6.802;2023-04-08T00:05:28;101905.44;;;10.33;80.48
79372;BME280;68914;51.262;6.802;2023-04-08T00:06:28;101901.00;;;10.25;81.39
79372;BME280;68914;51.262;6.802;2023-04-08T00:07:30;101910.06;;;10.23;80.67
79372;BME280;68914;51.262;6.802;2023-04-08T00:08:31;101901.66;;;10.27;80.83
79372;BME280;68914;51.262;6.802;2023-04-08T00:09:32;101904.47;;;10.26;80.81
79372;BME280;68914;51.262;6.802;2023-04-08T00:10:32;101909.56;;;10.19;80.89
79372;BME280;68914;51.262;6.802;2023-04-08T00:11:33;101911.06;;;10.22;81.35
79372;BME280;68914;51.262;6.802;2023-04-08T00:12:33;101913.19;;;10.34;80.57
79372;BME280;68914;51.262;6.802;2023-04-08T00:13:34;101912.88;;;10.29;80.66
79372;BME280;68914;51.262;6.802;2023-04-08T00:14:35;101909.56;;;10.36;80.18
79372;BME280;68914;51.262;6.802;2023-04-08T00:15:37;101902.94;;;10.40;80.66
79372;BME280;68914;51.262;6.802;2023-04-08T00:16:38;101906.72;;;10.37;80.63
79372;BME280;68914;51.262;6.802;2023-04-08T00:17:39;101905.41;;;10.41;80.70
79372;BME280;68914;51.262;6.802;2023-04-08T00:18:40;101908.53;;;10.45;79.97
79372;BME280;68914;51.262;6.802;2023-04-08T00:19:41;101907.72;;;10.44;80.46
79372;BME280;68914;51.262;6.802;2023-04-08T00:20:43;101903.91;;;10.47;80.07
79372;BME280;68914;51.262;6.802;2023-04-08T00:21:43;101908.84;;;10.50;80.17
79372;BME280;68914;51.262;6.802;2023-04-08T00:22:44;101909.38;;;10.45;80.26
79372;BME280;68914;51.262;6.802;2023-04-08T00:23:45;101904.91;;;10.46;80.16
79372;BME280;68914;51.262;6.802;2023-04-08T00:24:46;101905.25;;;10.43;79.94
79372;BME280;68914;51.262;6.802;2023-04-08T00:25:47;101913.19;;;10.34;80.15
79372;BME280;68914;51.262;6.802;2023-04-08T00:26:47;101906.41;;;10.40;79.50
79372;BME280;68914;51.262;6.802;2023-04-08T00:27:48;101907.19;;;10.49;80.05
79372;BME280;68914;51.262;6.802;2023-04-08T00:28:48;101914.16;;;10.42;80.04
79372;BME280;68914;51.262;6.802;2023-04-08T00:29:49;101904.59;;;10.41;79.99
79372;BME280;68914;51.262;6.802;2023-04-08T00:30:51;101914.50;;;10.39;80.15
79372;BME280;68914;51.262;6.802;2023-04-08T00:31:55;101918.09;;;10.46;79.58
79372;BME280;68914;51.262;6.802;2023-04-08T00:32:56;101918.25;;;10.44;79.84
79372;BME280;68914;51.262;6.802;2023-04-08T00:33:57;101914.16;;;10.42;80.13
79372;BME280;68914;51.262;6.802;2023-04-08T00:34:58;101915.47;;;10.46;79.72
79372;BME280;68914;51.262;6.802;2023-04-08T00:35:58;101911.69;;;10.40;80.32
79372;BME280;68914;51.262;6.802;2023-04-08T00:36:59;101917.75;;;10.41;80.22
79372;BME280;68914;51.262;6.802;2023-04-08T00:38:00;101915.47;;;10.46;80.08
79372;BME280;68914;51.262;6.802;2023-04-08T00:39:01;101912.47;;;10.49;80.13
79372;BME280;68914;51.262;6.802;2023-04-08T00:40:04;101911.34;;;10.43;79.57
79372;BME280;68914;51.262;6.802;2023-04-08T00:41:04;101915.50;;;10.38;80.40
79372;BME280;68914;51.262;6.802;2023-04-08T00:42:05;101908.91;;;10.33;81.11
79372;BME280;68914;51.262;6.802;2023-04-08T00:43:06;101913.69;;;10.38;80.71
79372;BME280;68914;51.262;6.802;2023-04-08T00:44:06;101915.97;;;10.33;80.86
79372;BME280;68914;51.262;6.802;2023-04-08T00:45:08;101917.28;;;10.37;80.19
79372;BME280;68914;51.262;6.802;2023-04-08T00:46:09;101909.38;;;10.45;80.02
79372;BME280;68914;51.262;6.802;2023-04-08T00:47:13;101916.63;;;10.43;81.01
79372;BME280;68914;51.262;6.802;2023-04-08T00:48:15;101910.69;;;10.49;80.17
79372;BME280;68914;51.262;6.802;2023-04-08T00:49:16;101908.88;;;10.42;80.25
79372;BME280;68914;51.262;6.802;2023-04-08T00:50:17;101909.72;;;10.42;80.09
79372;BME280;68914;51.262;6.802;2023-04-08T00:51:18;101917.63;;;10.42;80.28
79372;BME280;68914;51.262;6.802;2023-04-08T00:52:19;101914.63;;;10.37;80.31
79372;BME280;68914;51.262;6.802;2023-04-08T00:53:19;101913.53;;;10.15;81.35
79372;BME280;68914;51.262;6.802;2023-04-08T00:54:20;101915.84;;;10.26;81.40
79372;BME280;68914;51.262;6.802;2023-04-08T00:55:21;101918.78;;;10.15;81.43
79372;BME280;68914;51.262;6.802;2023-04-08T00:56:22;101919.28;;;10.19;81.08
79372;BME280;68914;51.262;6.802;2023-04-08T00:57:23;101913.84;;;10.28;80.97
79372;BME280;68914;51.262;6.802;2023-04-08T00:58:24;101915.47;;;10.21;81.23
79372;BME280;68914;51.262;6.802;2023-04-08T00:59:26;101921.75;;;10.28;80.45
79372;BME280;68914;51.262;6.802;2023-04-08T01:00:29;101918.13;;;10.38;80.79
79372;BME280;68914;51.262;6.802;2023-04-08T01:03:07;101928.19;;;10.26;80.67
79372;BME280;68914;51.262;6.802;2023-04-08T01:08:07;101925.88;;;10.31;80.91
79372;BME280;68914;51.262;6.802;2023-04-08T01:09:10;101921.91;;;10.35;81.01
79372;BME280;68914;51.262;6.802;2023-04-08T01:10:15;101925.53;;;10.42;80.52
79372;BME280;68914;51.262;6.802;2023-04-08T01:11:17;101925.00;;;10.47;80.40
79372;BME280;68914;51.262;6.802;2023-04-08T01:12:24;101929.00;;;10.34;80.72
79372;BME280;68914;51.262;6.802;2023-04-08T01:13:33;101923.75;;;10.18;81.15
79372;BME280;68914;51.262;6.802;2023-04-08T01:14:39;101929.97;;;10.09;81.98
79372;BME280;68914;51.262;6.802;2023-04-08T01:15:41;101925.56;;;10.26;81.02
79372;BME280;68914;51.262;6.802;2023-04-08T01:16:44;101922.75;;;10.19;81.11
79372;BME280;68914;51.262;6.802;2023-04-08T01:17:46;101929.31;;;10.23;80.86
79372;BME280;68914;51.262;6.802;2023-04-08T01:18:48;101930.97;;;10.32;81.25
79372;BME280;68914;51.262;6.802;2023-04-08T01:19:50;101931.47;;;10.36;81.23
79372;BME280;68914;51.262;6.802;2023-04-08T01:20:52;101925.84;;;10.39;81.10
79372;BME280;68914;51.262;6.802;2023-04-08T01:22:01;101933.75;;;10.39;80.38
79372;BME280;68914;51.262;6.802;2023-04-08T01:23:14;101932.16;;;10.30;80.84
79372;BME280;68914;51.262;6.802;2023-04-08T01:24:27;101930.66;;;10.27;81.30
79372;BME280;68914;51.262;6.802;2023-04-08T01:25:32;101927.69;;;10.30;80.99
79372;BME280;68914;51.262;6.802;2023-04-08T01:26:34;101927.19;;;10.35;80.89
79372;BME280;68914;51.262;6.802;2023-04-08T01:27:36;101929.50;;;10.22;81.35
79372;BME280;68914;51.262;6.802;2023-04-08T01:28:38;101928.69;;;10.29;81.44
79372;BME280;68914;51.262;6.802;2023-04-08T01:29:40;101934.28;;;10.26;80.99
79372;BME280;68914;51.262;6.802;2023-04-08T01:30:44;101928.19;;;10.34;80.86
79372;BME280;68914;51.262;6.802;2023-04-08T01:31:45;101932.28;;;10.28;81.25
79372;BME280;68914;51.262;6.802;2023-04-08T01:32:48;101929.66;;;10.20;81.99
79372;BME280;68914;51.262;6.802;2023-04-08T01:33:50;101936.59;;;10.29;81.68
79372;BME280;68914;51.262;6.802;2023-04-08T01:34:51;101934.59;;;10.31;81.10
79372;BME280;68914;51.262;6.802;2023-04-08T01:35:53;101937.41;;;10.30;80.76
79372;BME280;68914;51.262;6.802;2023-04-08T01:36:55;101937.06;;;10.17;82.35
79372;BME280;68914;51.262;6.802;2023-04-08T01:37:58;101942.81;;;10.20;82.28
79372;BME280;68914;51.262;6.802;2023-04-08T01:39:00;101935.25;;;10.42;80.91
79372;BME280;68914;51.262;6.802;2023-04-08T01:40:03;101939.22;;;10.38;81.06
79372;BME280;68914;51.262;6.802;2023-04-08T01:41:07;101938.00;;;10.48;80.09
79372;BME280;68914;51.262;6.802;2023-04-08T01:42:10;101942.50;;;10.23;81.71
79372;BME280;68914;51.262;6.802;2023-04-08T01:43:16;101947.13;;;10.38;81.32
79372;BME280;68914;51.262;6.802;2023-04-08T01:44:17;101936.59;;;10.38;80.88
79372;BME280;68914;51.262;6.802;2023-04-08T01:45:19;101935.88;;;10.44;81.13
79372;BME280;68914;51.262;6.802;2023-04-08T01:46:21;101936.41;;;10.39;80.41
79372;BME280;68914;51.262;6.802;2023-04-08T01:47:22;101939.69;;;10.33;81.34
79372;BME280;68914;51.262;6.802;2023-04-08T01:48:24;101936.06;;;10.42;80.52
79372;BME280;68914;51.262;6.802;2023-04-08T01:49:25;101936.59;;;10.38;80.94
79372;BME280;68914;51.262;6.802;2023-04-08T01:50:27;101940.06;;;10.30;81.12
79372;BME280;68914;51.262;6.802;2023-04-08T01:51:29;101940.38;;;10.35;80.87
79372;BME280;68914;51.262;6.802;2023-04-08T01:52:33;101940.53;;;10.42;81.06
79372;BME280;68914;51.262;6.802;2023-04-08T01:53:34;101944.63;;;10.44;80.22
79372;BME280;68914;51.262;6.802;2023-04-08T01:54:35;101934.41;;;10.41;81.08
79372;BME280;68914;51.262;6.802;2023-04-08T01:55:37;101946.28;;;10.45;80.41
79372;BME280;68914;51.262;6.802;2023-04-08T01:56:40;101938.72;;;10.42;80.58
79372;BME280;68914;51.262;6.802;2023-04-08T01:57:47;101940.84;;;10.39;80.71
79372;BME280;68914;51.262;6.802;2023-04-08T01:58:51;101942.31;;;10.41;80.31
79372;BME280;68914;51.262;6.802;2023-04-08T01:59:57;101937.91;;;10.33;81.40
79372;BME280;68914;51.262;6.802;2023-04-08T02:01:00;101935.75;;;10.29;80.71
79372;BME280;68914;51.262;6.802;2023-04-08T02:02:01;101939.22;;;10.38;81.19
79372;BME280;68914;51.262;6.802;2023-04-08T02:03:05;101936.94;;;10.26;81.72
79372;BME280;68914;51.262;6.802;2023-04-08T02:04:06;101935.44;;;10.32;81.36
79372;BME280;68914;51.262;6.802;2023-04-08T02:05:07;101937.72;;;10.43;81.07
79372;BME280;68914;51.262;6.802;2023-04-08T02:06:08;101943.63;;;10.37;81.04
79372;BME280;68914;51.262;6.802;2023-04-08T02:07:10;101933.59;;;10.32;81.14
79372;BME280;68914;51.262;6.802;2023-04-08T02:08:11;101937.56;;;10.28;81.65
79372;BME280;68914;51.262;6.802;2023-04-08T02:09:12;101941.66;;;10.39;81.18
79372;BME280;68914;51.262;6.802;2023-04-08T02:10:13;101937.88;;;10.17;81.75
79372;BME280;68914;51.262;6.802;2023-04-08T02:11:13;101937.41;;;10.22;82.12
79372;BME280;68914;51.262;6.802;2023-04-08T02:12:14;101939.38;;;10.36;81.48
79372;BME280;68914;51.262;6.802;2023-04-08T02:13:15;101943.47;;;10.47;80.60
79372;BME280;68914;51.262;6.802;2023-04-08T02:14:15;101942.97;;;10.51;80.71
79372;BME280;68914;51.262;6.802;2023-04-08T02:15:16;101943.47;;;10.47;80.70
79372;BME280;68914;51.262;6.802;2023-04-08T02:16:30;101931.47;;;10.28;81.31
79372;BME280;68914;51.262;6.802;2023-04-08T02:18:55;101937.91;;;10.33;81.36
79372;BME280;68914;51.262;6.802;2023-04-08T02:20:09;101936.91;;;10.34;81.36
79372;BME280;68914;51.262;6.802;2023-04-08T02:21:13;101946.78;;;10.41;81.17
79372;BME280;68914;51.262;6.802;2023-04-08T02:22:35;101939.69;;;10.41;80.77
79372;BME280;68914;51.262;6.802;2023-04-08T02:23:38;101935.22;;;10.50;80.24
79372;BME280;68914;51.262;6.802;2023-04-08T02:24:40;101942.31;;;10.49;80.78
79372;BME280;68914;51.262;6.802;2023-04-08T02:25:43;101944.63;;;10.44;81.07
79372;BME280;68914;51.262;6.802;2023-04-08T02:26:46;101943.47;;;10.47;80.30
79372;BME280;68914;51.262;6.802;2023-04-08T02:27:51;101945.97;;;10.32;81.21
79372;BME280;68914;51.262;6.802;2023-04-08T02:28:53;101940.53;;;10.33;81.16
79372;BME280;68914;51.262;6.802;2023-04-08T02:29:56;101940.19;;;10.37;81.09
79372;BME280;68914;51.262;6.802;2023-04-08T02:30:59;101938.72;;;10.34;81.68
79372;BME280;68914;51.262;6.802;2023-04-08T02:32:01;101941.47;;;10.49;80.81
79372;BME280;68914;51.262;6.802;2023-04-08T02:33:03;101936.53;;;10.54;80.68
79372;BME280;68914;51.262;6.802;2023-04-08T02:34:07;101943.66;;;10.45;80.37
79372;BME280;68914;51.262;6.802;2023-04-08T02:35:10;101935.59;;;10.39;81.14
79372;BME280;68914;51.262;6.802;2023-04-08T02:36:12;101943.50;;;10.30;81.51
79372;BME280;68914;51.262;6.802;2023-04-08T02:37:14;101934.75;;;10.38;81.41
79372;BME280;68914;51.262;6.802;2023-04-08T02:38:15;101938.34;;;10.53;80.16
79372;BME280;68914;51.262;6.802;2023-04-08T02:39:17;101936.06;;;10.42;80.88
79372;BME280;68914;51.262;6.802;2023-04-08T02:40:31;101948.22;;;10.59;79.96
79372;BME280;68914;51.262;6.802;2023-04-08T02:41:32;101943.78;;;10.52;80.48
79372;BME280;68914;51.262;6.802;2023-04-08T02:42:33;101947.41;;;10.51;80.62
79372;BME280;68914;51.262;6.802;2023-04-08T02:43:33;101942.31;;;10.49;80.87
79372;BME280;68914;51.262;6.802;2023-04-08T02:44:38;101948.91;;;10.53;80.47
79372;BME280;68914;51.262;6.802;2023-04-08T02:45:43;101951.66;;;10.60;80.28
79372;BME280;68914;51.262;6.802;2023-04-08T02:46:43;101944.25;;;10.55;80.70
79372;BME280;68914;51.262;6.802;2023-04-08T02:47:44;101943.09;;;10.66;80.09
79372;BME280;68914;51.262;6.802;2023-04-08T02:48:45;101946.91;;;10.55;80.12
79372;BME280;68914;51.262;6.802;2023-04-08T02:49:45;101949.69;;;10.62;79.63
79372;BME280;68914;51.262;6.802;2023-04-08T02:50:46;101948.03;;;10.61;80.32
79372;BME280;68914;51.262;6.802;2023-04-08T02:51:47;101947.88;;;10.63;79.76
79372;BME280;68914;51.262;6.802;2023-04-08T02:52:47;101945.91;;;10.56;80.04
79372;BME280;68914;51.262;6.802;2023-04-08T02:53:48;101949.56;;;10.47;80.22
79372;BME280;68914;51.262;6.802;2023-04-08T02:54:48;101946.94;;;10.47;81.07
79372;BME280;68914;51.262;6.802;2023-04-08T02:55:49;101952.19;;;10.47;81.04
79372;BME280;68914;51.262;6.802;2023-04-08T02:56:49;101946.91;;;10.55;80.70
79372;BME280;68914;51.262;6.802;2023-04-08T02:57:50;101951.34;;;10.55;80.76
79372;BME280;68914;51.262;6.802;2023-04-08T02:58:51;101951.19;;;10.56;80.33
79372;BME280;68914;51.262;6.802;2023-04-08T02:59:51;101951.19;;;10.56;80.40
79372;BME280;68914;51.262;6.802;2023-04-08T03:00:52;101953.69;;;10.50;80.92
79372;BME280;68914;51.262;6.802;2023-04-08T03:01:52;101951.56;;;10.45;80.67
79372;BME280;68914;51.262;6.802;2023-04-08T03:02:53;101951.72;;;10.36;80.91
79372;BME280;68914;51.262;6.802;2023-04-08T03:03:54;101949.41;;;10.32;81.45
79372;BME280;68914;51.262;6.802;2023-04-08T03:04:55;101957.66;;;10.46;80.32
79372;BME280;68914;51.262;6.802;2023-04-08T03:05:56;101953.84;;;10.40;80.92
79372;BME280;68914;51.262;6.802;2023-04-08T03:06:56;101966.03;;;10.41;81.07
79372;BME280;68914;51.262;6.802;2023-04-08T03:07:57;101949.75;;;10.38;80.71
79372;BME280;68914;51.262;6.802;2023-04-08T03:08:58;101956.84;;;10.45;80.41
79372;BME280;68914;51.262;6.802;2023-04-08T03:09:58;101957.81;;;10.44;79.95
79372;BME280;68914;51.262;6.802;2023-04-08T03:10:59;101958.28;;;10.48;80.26
79372;BME280;68914;51.262;6.802;2023-04-08T03:12:00;101961.44;;;10.43;80.30
79372;BME280;68914;51.262;6.802;2023-04-08T03:13:00;101955.03;;;10.38;80.65
79372;BME280;68914;51.262;6.802;2023-04-08T03:14:01;101959.31;;;10.22;80.83
79372;BME280;68914;51.262;6.802;2023-04-08T03:15:01;101962.97;;;10.29;81.58
79372;BME280;68914;51.262;6.802;2023-04-08T03:16:02;101961.28;;;10.28;81.00
79372;BME280;68914;51.262;6.802;2023-04-08T03:17:03;101962.28;;;10.36;80.79
79372;BME280;68914;51.262;6.802;2023-04-08T03:18:04;101960.31;;;10.38;80.42
79372;BME280;68914;51.262;6.802;2023-04-08T03:19:04;101962.09;;;10.37;80.51
79372;BME280;68914;51.262;6.802;2023-04-08T03:20:06;101964.28;;;10.33;80.12
79372;BME280;68914;51.262;6.802;2023-04-08T03:21:07;101957.00;;;10.36;80.70
79372;BME280;68914;51.262;6.802;2023-04-08T03:22:07;101957.31;;;10.41;80.94
79372;BME280;68914;51.262;6.802;2023-04-08T03:23:10;101955.69;;;10.31;80.46
79372;BME280;68914;51.262;6.802;2023-04-08T03:24:11;101960.28;;;10.21;81.29
79372;BME280;68914;51.262;6.802;2023-04-08T03:25:12;101961.78;;;10.32;80.88
79372;BME280;68914;51.262;6.802;2023-04-08T03:26:13;101967.53;;;10.19;81.41
79372;BME280;68914;51.262;6.802;2023-04-08T03:27:13;101962.44;;;10.18;80.90
79372;BME280;68914;51.262;6.802;2023-04-08T03:28:14;101962.78;;;10.15;81.74
79372;BME280;68914;51.262;6.802;2023-04-08T03:29:15;101960.63;;;10.18;81.10
79372;BME280;68914;51.262;6.802;2023-04-08T03:30:16;101963.28;;;10.10;80.89
79372;BME280;68914;51.262;6.802;2023-04-08T03:31:16;101959.81;;;10.18;80.81
79372;BME280;68914;51.262;6.802;2023-04-08T03:32:20;101962.75;;;10.23;81.26
79372;BME280;68914;51.262;6.802;2023-04-08T03:33:21;101958.97;;;10.09;81.39
79372;BME280;68914;51.262;6.802;2023-04-08T03:34:21;101962.91;;;10.13;80.97
79372;BME280;68914;51.262;6.802;2023-04-08T03:35:22;101958.81;;;10.10;81.14
79372;BME280;68914;51.262;6.802;2023-04-08T03:36:22;101961.28;;;10.12;81.15
79372;BME280;68914;51.262;6.802;2023-04-08T03:37:23;101956.19;;;10.10;81.14
79372;BME280;68914;51.262;6.802;2023-04-08T03:38:24;101959.78;;;10.09;80.99
79372;BME280;68914;51.262;6.802;2023-04-08T03:39:24;101959.34;;;10.06;80.92
79372;BME280;68914;51.262;6.802;2023-04-08T03:40:25;101961.59;;;10.09;80.98
79372;BME280;68914;51.262;6.802;2023-04-08T03:41:25;101952.75;;;10.10;81.13
79372;BME280;68914;51.262;6.802;2023-04-08T03:42:26;101963.78;;;10.14;80.58
79372;BME280;68914;51.262;6.802;2023-04-08T03:43:26;101959.47;;;10.04;81.16
79372;BME280;68914;51.262;6.802;2023-04-08T03:44:27;101964.94;;;10.03;80.62
79372;BME280;68914;51.262;6.802;2023-04-08T03:45:28;101963.91;;;10.12;80.38
79372;BME280;68914;51.262;6.802;2023-04-08T03:46:28;101962.28;;;9.95;80.83
79372;BME280;68914;51.262;6.802;2023-04-08T03:47:29;101967.06;;;9.99;81.39
79372;BME280;68914;51.262;6.802;2023-04-08T03:48:31;101968.06;;;9.98;81.72
79372;BME280;68914;51.262;6.802;2023-04-08T03:49:31;101961.97;;;9.98;80.81
79372;BME280;68914;51.262;6.802;2023-04-08T03:50:32;101972.00;;;10.02;81.24
79372;BME280;68914;51.262;6.802;2023-04-08T03:51:33;101966.88;;;10.01;80.17
79372;BME280;68914;51.262;6.802;2023-04-08T03:52:33;101972.34;;;9.99;80.72
79372;BME280;68914;51.262;6.802;2023-04-08T03:53:34;101970.69;;;9.98;80.94
79372;BME280;68914;51.262;6.802;2023-04-08T03:54:34;101976.44;;;9.85;81.56
79372;BME280;68914;51.262;6.802;2023-04-08T03:55:35;101972.84;;;9.87;81.36
79372;BME280;68914;51.262;6.802;2023-04-08T03:56:36;101966.06;;;9.84;81.14
79372;BME280;68914;51.262;6.802;2023-04-08T03:57:36;101972.47;;;9.81;81.71
79372;BME280;68914;51.262;6.802;2023-04-08T03:58:37;101970.34;;;9.85;81.29
79372;BME280;68914;51.262;6.802;2023-04-08T03:59:37;101965.56;;;9.89;81.06
79372;BME280;68914;51.262;6.802;2023-04-08T04:00:40;101962.63;;;9.92;80.83
79372;BME280;68914;51.262;6.802;2023-04-08T04:01:40;101967.25;;;9.98;81.06
79372;BME280;68914;51.262;6.802;2023-04-08T04:02:41;101968.19;;;9.97;81.13
79372;BME280;68914;51.262;6.802;2023-04-08T04:03:42;101961.47;;;9.86;81.69
79372;BME280;68914;51.262;6.802;2023-04-08T04:04:42;101965.75;;;9.71;81.46
79372;BME280;68914;51.262;6.802;2023-04-08T04:05:43;101974.47;;;9.71;82.23
79372;BME280;68914;51.262;6.802;2023-04-08T04:06:43;101973.66;;;9.79;81.53
79372;BME280;68914;51.262;6.802;2023-04-08T04:07:44;101969.69;;;9.83;81.60
79372;BME280;68914;51.262;6.802;2023-04-08T04:08:45;101971.34;;;9.84;80.47
79372;BME280;68914;51.262;6.802;2023-04-08T04:09:45;101971.50;;;9.82;81.00
79372;BME280;68914;51.262;6.802;2023-04-08T04:10:46;101971.34;;;9.84;80.64
79372;BME280;68914;51.262;6.802;2023-04-08T04:11:47;101969.84;;;9.81;80.41
79372;BME280;68914;51.262;6.802;2023-04-08T04:12:48;101970.03;;;9.80;79.99
79372;BME280;68914;51.262;6.802;2023-04-08T04:13:49;101971.66;;;9.89;80.13
79372;BME280;68914;51.262;6.802;2023-04-08T04:14:50;101981.19;;;9.74;79.58
79372;BME280;68914;51.262;6.802;2023-04-08T04:15:50;101981.69;;;9.77;80.14
79372;BME280;68914;51.262;6.802;2023-04-08T04:16:51;101979.25;;;9.84;80.54
79372;BME280;68914;51.262;6.802;2023-04-08T04:17:51;101975.09;;;9.73;81.05
79372;BME280;68914;51.262;6.802;2023-04-08T04:18:52;101978.22;;;9.60;81.34
79372;BME280;68914;51.262;6.802;2023-04-08T04:19:53;101979.22;;;9.59;81.92
79372;BME280;68914;51.262;6.802;2023-04-08T04:20:53;101979.41;;;9.66;81.58
79372;BME280;68914;51.262;6.802;2023-04-08T04:21:54;101987.31;;;9.74;81.39
79372;BME280;68914;51.262;6.802;2023-04-08T04:22:54;101979.72;;;9.71;81.60
79372;BME280;68914;51.262;6.802;2023-04-08T04:23:55;101989.78;;;9.76;81.37
79372;BME280;68914;51.262;6.802;2023-04-08T04:24:56;101986.63;;;9.72;80.96
79372;BME280;68914;51.262;6.802;2023-04-08T04:25:56;101987.97;;;9.76;80.93
79372;BME280;68914;51.262;6.802;2023-04-08T04:26:57;101998.31;;;9.70;81.58
79372;BME280;68914;51.262;6.802;2023-04-08T04:27:57;101994.84;;;9.69;80.74
79372;BME280;68914;51.262;6.802;2023-04-08T04:28:58;101989.44;;;9.71;80.99
79372;BME280;68914;51.262;6.802;2023-04-08T04:29:59;102000.47;;;9.66;80.72
79372;BME280;68914;51.262;6.802;2023-04-08T04:31:00;101997.66;;;9.68;80.85
79372;BME280;68914;51.262;6.802;2023-04-08T04:32:00;101991.72;;;9.66;80.72
79372;BME280;68914;51.262;6.802;2023-04-08T04:33:01;101998.78;;;9.57;80.71
79372;BME280;68914;51.262;6.802;2023-04-08T04:34:02;101998.16;;;9.63;80.96
79372;BME280;68914;51.262;6.802;2023-04-08T04:35:02;101997.47;;;9.61;81.01
79372;BME280;68914;51.262;6.802;2023-04-08T04:36:03;101998.16;;;9.63;81.03
79372;BME280;68914;51.262;6.802;2023-04-08T04:37:03;101998.97;;;9.72;80.55
79372;BME280;68914;51.262;6.802;2023-04-08T04:38:04;102010.00;;;9.67;81.03
79372;BME280;68914;51.262;6.802;2023-04-08T04:39:09;102005.88;;;9.65;80.86
79372;BME280;68914;51.262;6.802;2023-04-08T04:40:10;102008.53;;;9.73;81.03
79372;BME280;68914;51.262;6.802;2023-04-08T04:41:11;102009.66;;;9.62;80.69
79372;BME280;68914;51.262;6.802;2023-04-08T04:42:12;102009.00;;;9.60;80.68
79372;BME280;68914;51.262;6.802;2023-04-08T04:43:12;102007.00;;;9.54;81.29
79372;BME280;68914;51.262;6.802;2023-04-08T04:44:13;102009.00;;;9.60;81.03
79372;BME280;68914;51.262;6.802;2023-04-08T04:45:13;102011.97;;;9.65;80.35
79372;BME280;68914;51.262;6.802;2023-04-08T04:46:14;102014.81;;;9.80;79.34
79372;BME280;68914;51.262;6.802;2023-04-08T04:47:15;102010.03;;;9.75;79.57
79372;BME280;68914;51.262;6.802;2023-04-08T04:48:16;102015.59;;;9.64;79.82
79372;BME280;68914;51.262;6.802;2023-04-08T04:49:16;102009.69;;;9.70;80.00
79372;BME280;68914;51.262;6.802;2023-04-08T04:50:17;102016.09;;;9.76;78.78
79372;BME280;68914;51.262;6.802;2023-04-08T04:51:17;102008.19;;;9.68;79.81
79372;BME280;68914;51.262;6.802;2023-04-08T04:52:18;102011.94;;;9.57;80.31
79372;BME280;68914;51.262;6.802;2023-04-08T04:53:19;102014.91;;;9.62;80.15
79372;BME280;68914;51.262;6.802;2023-04-08T04:54:19;102009.31;;;9.57;79.19
79372;BME280;68914;51.262;6.802;2023-04-08T04:55:20;102013.44;;;9.59;79.64
79372;BME280;68914;51.262;6.802;2023-04-08T04:56:21;102013.13;;;9.63;80.36
79372;BME280;68914;51.262;6.802;2023-04-08T04:57:22;102014.75;;;9.55;80.26
79372;BME280;68914;51.262;6.802;2023-04-08T04:58:23;102015.41;;;9.57;80.51
79372;BME280;68914;51.262;6.802;2023-04-08T04:59:24;102016.91;;;9.68;79.77
79372;BME280;68914;51.262;6.802;2023-04-08T05:00:24;102019.72;;;9.58;80.46
79372;BME280;68914;51.262;6.802;2023-04-08T05:01:25;102018.19;;;9.48;80.98
79372;BME280;68914;51.262;6.802;2023-04-08T05:02:25;102017.19;;;9.49;80.84
79372;BME280;68914;51.262;6.802;2023-04-08T05:03:26;102011.81;;;9.58;80.48
79372;BME280;68914;51.262;6.802;2023-04-08T05:04:27;102016.72;;;9.61;80.64
79372;BME280;68914;51.262;6.802;2023-04-08T05:05:27;102013.28;;;9.61;80.26
79372;BME280;68914;51.262;6.802;2023-04-08T05:06:28;102012.47;;;9.69;80.33
79372;BME280;68914;51.262;6.802;2023-04-08T05:07:28;102015.91;;;9.61;80.20
79372;BME280;68914;51.262;6.802;2023-04-08T05:08:29;102011.63;;;9.60;80.85
79372;BME280;68914;51.262;6.802;2023-04-08T05:09:29;102011.59;;;9.44;80.80
79372;BME280;68914;51.262;6.802;2023-04-08T05:10:30;102015.88;;;9.45;80.86
79372;BME280;68914;51.262;6.802;2023-04-08T05:11:31;102018.34;;;9.46;80.87
79372;BME280;68914;51.262;6.802;2023-04-08T05:12:32;102011.63;;;9.60;80.59
79372;BME280;68914;51.262;6.802;2023-04-08T05:13:32;102010.66;;;9.61;80.51
79372;BME280;68914;51.262;6.802;2023-04-08T05:14:33;102012.97;;;9.64;80.53
79372;BME280;68914;51.262;6.802;2023-04-08T05:15:34;102017.22;;;9.65;80.34
79372;BME280;68914;51.262;6.802;2023-04-08T05:16:34;102020.03;;;9.55;80.68
79372;BME280;68914;51.262;6.802;2023-04-08T05:17:35;102013.94;;;9.55;81.33
79372;BME280;68914;51.262;6.802;2023-04-08T05:18:36;102018.84;;;9.58;80.46
79372;BME280;68914;51.262;6.802;2023-04-08T05:19:36;102017.22;;;9.57;81.03
79372;BME280;68914;51.262;6.802;2023-04-08T05:20:37;102023.16;;;9.59;80.56
79372;BME280;68914;51.262;6.802;2023-04-08T05:21:38;102025.28;;;9.55;80.64
79372;BME280;68914;51.262;6.802;2023-04-08T05:22:39;102027.44;;;9.60;80.27
79372;BME280;68914;51.262;6.802;2023-04-08T05:23:39;102025.13;;;9.65;80.19
79372;BME280;68914;51.262;6.802;2023-04-08T05:24:40;102027.13;;;9.71;79.62
79372;BME280;68914;51.262;6.802;2023-04-08T05:25:41;102021.19;;;9.69;80.26
79372;BME280;68914;51.262;6.802;2023-04-08T05:26:41;102022.19;;;9.76;79.68
79372;BME280;68914;51.262;6.802;2023-04-08T05:27:42;102024.81;;;9.68;80.25
79372;BME280;68914;51.262;6.802;2023-04-08T05:28:42;102031.72;;;9.61;80.60
79372;BME280;68914;51.262;6.802;2023-04-08T05:29:43;102034.00;;;9.56;81.70